sensor_id;sensor_type;location;lat;lon;timestamp;P1;durP1;ratioP1;P2;durP2;ratioP2
16294;SDS011;8255;49.560;8.244;2023-03-20T00:00:42;3.45;;;3.17;;
16294;SDS011;8255;49.560;8.244;2023-03-20T00:03:09;3.22;;;3.10;;
16294;SDS011;8255;49.560;8.244;2023-03-20T00:05:35;3.20;;;3.00;;
16294;SDS011;8255;49.560;8.244;2023-03-20T00:08:01;2.88;;;2.78;;
16294;SDS011;8255;49.560;8.244;2023-03-20T00:10:30;3.40;;;3.10;;
16294;SDS011;8255;49.560;8.244;2023-03-20T00:12:57;3.30;;;3.10;;
16294;SDS011;8255;49.560;8.244;2023-03-20T00:15:29;3.33;;;3.13;;
16294;SDS011;8255;49.560;8.244;2023-03-20T00:17:56;3.47;;;3.17;;
16294;SDS011;8255;49.560;8.244;2023-03-20T00:20:22;3.15;;;2.95;;
16294;SDS011;8255;49.560;8.244;2023-03-20T00:22:49;2.90;;;2.80;;
16294;SDS011;8255;49.560;8.244;2023-03-20T00:25:16;3.05;;;2.95;;
16294;SDS011;8255;49.560;8.244;2023-03-20T00:27:43;2.95;;;2.80;;
16294;SDS011;8255;49.560;8.244;2023-03-20T00:30:15;3.47;;;3.27;;
16294;SDS011;8255;49.560;8.244;2023-03-20T00:32:45;3.53;;;3.30;;
16294;SDS011;8255;49.560;8.244;2023-03-20T00:35:15;3.03;;;2.92;;
16294;SDS011;8255;49.560;8.244;2023-03-20T00:37:42;2.88;;;2.78;;
16294;SDS011;8255;49.560;8.244;2023-03-20T00:40:09;3.00;;;2.90;;
16294;SDS011;8255;49.560;8.244;2023-03-20T00:42:38;3.30;;;3.10;;
16294;SDS011;8255;49.560;8.244;2023-03-20T00:45:07;3.17;;;2.97;;
16294;SDS011;8255;49.560;8.244;2023-03-20T00:47:37;3.22;;;3.08;;
16294;SDS011;8255;49.560;8.244;2023-03-20T00:50:12;3.47;;;3.28;;
16294;SDS011;8255;49.560;8.244;2023-03-20T00:52:39;2.97;;;2.78;;
16294;SDS011;8255;49.560;8.244;2023-03-20T00:55:06;3.22;;;3.03;;
16294;SDS011;8255;49.560;8.244;2023-03-20T00:57:34;3.50;;;3.30;;
16294;SDS011;8255;49.560;8.244;2023-03-20T01:00:04;3.40;;;3.20;;
16294;SDS011;8255;49.560;8.244;2023-03-20T01:02:31;3.10;;;2.90;;
16294;SDS011;8255;49.560;8.244;2023-03-20T01:04:58;3.53;;;3.33;;
16294;SDS011;8255;49.560;8.244;2023-03-20T01:07:26;3.38;;;3.17;;
16294;SDS011;8255;49.560;8.244;2023-03-20T01:09:52;3.42;;;3.22;;
16294;SDS011;8255;49.560;8.244;2023-03-20T01:12:19;3.40;;;3.10;;
16294;SDS011;8255;49.560;8.244;2023-03-20T01:14:45;3.58;;;3.38;;
16294;SDS011;8255;49.560;8.244;2023-03-20T01:17:17;3.00;;;2.90;;
16294;SDS011;8255;49.560;8.244;2023-03-20T01:19:44;3.10;;;3.00;;
16294;SDS011;8255;49.560;8.244;2023-03-20T01:22:10;3.83;;;3.53;;
16294;SDS011;8255;49.560;8.244;2023-03-20T01:24:39;3.35;;;3.15;;
16294;SDS011;8255;49.560;8.244;2023-03-20T01:27:07;3.85;;;3.65;;
16294;SDS011;8255;49.560;8.244;2023-03-20T01:29:36;3.00;;;2.90;;
16294;SDS011;8255;49.560;8.244;2023-03-20T01:32:04;4.03;;;3.83;;
16294;SDS011;8255;49.560;8.244;2023-03-20T01:34:34;4.80;;;4.40;;
16294;SDS011;8255;49.560;8.244;2023-03-20T01:37:00;4.60;;;4.28;;
16294;SDS011;8255;49.560;8.244;2023-03-20T01:39:27;4.68;;;4.30;;
16294;SDS011;8255;49.560;8.244;2023-03-20T01:41:58;5.45;;;5.05;;
16294;SDS011;8255;49.560;8.244;2023-03-20T01:44:27;7.00;;;6.40;;
16294;SDS011;8255;49.560;8.244;2023-03-20T01:46:56;8.43;;;7.63;;
16294;SDS011;8255;49.560;8.244;2023-03-20T01:52:08;8.35;;;7.25;;
16294;SDS011;8255;49.560;8.244;2023-03-20T01:54:34;9.05;;;8.15;;
16294;SDS011;8255;49.560;8.244;2023-03-20T01:57:11;8.68;;;7.88;;
16294;SDS011;8255;49.560;8.244;2023-03-20T01:59:40;8.90;;;8.00;;
16294;SDS011;8255;49.560;8.244;2023-03-20T02:02:09;10.05;;;9.02;;
16294;SDS011;8255;49.560;8.244;2023-03-20T02:04:40;10.32;;;9.07;;
16294;SDS011;8255;49.560;8.244;2023-03-20T02:07:10;10.52;;;9.43;;
16294;SDS011;8255;49.560;8.244;2023-03-20T02:09:42;11.02;;;9.80;;
16294;SDS011;8255;49.560;8.244;2023-03-20T02:12:15;10.65;;;9.65;;
16294;SDS011;8255;49.560;8.244;2023-03-20T02:14:43;10.57;;;9.25;;
16294;SDS011;8255;49.560;8.244;2023-03-20T02:17:19;10.90;;;9.80;;
16294;SDS011;8255;49.560;8.244;2023-03-20T02:19:57;10.95;;;9.82;;
16294;SDS011;8255;49.560;8.244;2023-03-20T02:22:44;11.30;;;10.10;;
16294;SDS011;8255;49.560;8.244;2023-03-20T02:25:35;12.70;;;11.38;;
16294;SDS011;8255;49.560;8.244;2023-03-20T02:28:15;12.15;;;10.85;;
16294;SDS011;8255;49.560;8.244;2023-03-20T02:30:54;11.77;;;10.57;;
16294;SDS011;8255;49.560;8.244;2023-03-20T02:38:58;14.90;;;11.95;;
16294;SDS011;8255;49.560;8.244;2023-03-20T02:41:29;12.88;;;11.48;;
16294;SDS011;8255;49.560;8.244;2023-03-20T02:43:59;12.40;;;11.00;;
16294;SDS011;8255;49.560;8.244;2023-03-20T02:46:28;14.82;;;11.95;;
16294;SDS011;8255;49.560;8.244;2023-03-20T02:48:59;14.73;;;11.75;;
16294;SDS011;8255;49.560;8.244;2023-03-20T02:51:28;15.35;;;12.57;;
16294;SDS011;8255;49.560;8.244;2023-03-20T02:54:02;14.88;;;13.32;;
16294;SDS011;8255;49.560;8.244;2023-03-20T02:56:33;13.90;;;12.38;;
16294;SDS011;8255;49.560;8.244;2023-03-20T02:59:01;15.50;;;13.18;;
16294;SDS011;8255;49.560;8.244;2023-03-20T03:01:30;16.38;;;12.98;;
16294;SDS011;8255;49.560;8.244;2023-03-20T03:03:59;17.20;;;12.55;;
16294;SDS011;8255;49.560;8.244;2023-03-20T03:06:26;17.58;;;14.05;;
16294;SDS011;8255;49.560;8.244;2023-03-20T03:08:57;17.48;;;13.60;;
16294;SDS011;8255;49.560;8.244;2023-03-20T03:11:27;15.98;;;12.98;;
16294;SDS011;8255;49.560;8.244;2023-03-20T03:13:55;17.48;;;13.82;;
16294;SDS011;8255;49.560;8.244;2023-03-20T03:16:23;17.52;;;13.65;;
16294;SDS011;8255;49.560;8.244;2023-03-20T03:18:51;19.48;;;14.57;;
16294;SDS011;8255;49.560;8.244;2023-03-20T03:21:19;17.52;;;14.27;;
16294;SDS011;8255;49.560;8.244;2023-03-20T03:23:47;17.45;;;13.45;;
16294;SDS011;8255;49.560;8.244;2023-03-20T03:26:14;18.10;;;14.23;;
16294;SDS011;8255;49.560;8.244;2023-03-20T03:28:45;20.27;;;15.23;;
16294;SDS011;8255;49.560;8.244;2023-03-20T03:31:14;18.13;;;14.82;;
16294;SDS011;8255;49.560;8.244;2023-03-20T03:33:43;19.20;;;14.00;;
16294;SDS011;8255;49.560;8.244;2023-03-20T03:36:11;18.80;;;14.73;;
16294;SDS011;8255;49.560;8.244;2023-03-20T03:38:42;17.98;;;13.93;;
16294;SDS011;8255;49.560;8.244;2023-03-20T03:41:17;20.23;;;14.75;;
16294;SDS011;8255;49.560;8.244;2023-03-20T03:43:48;21.35;;;14.95;;
16294;SDS011;8255;49.560;8.244;2023-03-20T03:46:18;18.23;;;14.00;;
16294;SDS011;8255;49.560;8.244;2023-03-20T03:48:48;19.85;;;14.18;;
16294;SDS011;8255;49.560;8.244;2023-03-20T03:51:16;19.35;;;15.00;;
16294;SDS011;8255;49.560;8.244;2023-03-20T03:53:59;17.85;;;13.88;;
16294;SDS011;8255;49.560;8.244;2023-03-20T03:56:28;19.65;;;14.88;;
16294;SDS011;8255;49.560;8.244;2023-03-20T03:58:58;17.88;;;13.40;;
16294;SDS011;8255;49.560;8.244;2023-03-20T04:01:25;19.67;;;14.27;;
16294;SDS011;8255;49.560;8.244;2023-03-20T04:03:54;20.65;;;14.63;;
16294;SDS011;8255;49.560;8.244;2023-03-20T04:06:22;19.15;;;14.77;;
16294;SDS011;8255;49.560;8.244;2023-03-20T04:08:49;17.23;;;13.90;;
16294;SDS011;8255;49.560;8.244;2023-03-20T04:11:16;19.08;;;14.45;;
16294;SDS011;8255;49.560;8.244;2023-03-20T04:13:43;17.83;;;14.45;;
16294;SDS011;8255;49.560;8.244;2023-03-20T04:16:14;18.45;;;14.38;;
16294;SDS011;8255;49.560;8.244;2023-03-20T04:18:42;18.90;;;14.07;;
16294;SDS011;8255;49.560;8.244;2023-03-20T04:21:11;19.77;;;14.85;;
16294;SDS011;8255;49.560;8.244;2023-03-20T04:23:41;19.50;;;15.27;;
16294;SDS011;8255;49.560;8.244;2023-03-20T04:26:07;17.77;;;14.75;;
16294;SDS011;8255;49.560;8.244;2023-03-20T04:28:34;17.77;;;13.70;;
16294;SDS011;8255;49.560;8.244;2023-03-20T04:31:14;19.85;;;14.77;;
16294;SDS011;8255;49.560;8.244;2023-03-20T04:33:50;16.52;;;13.57;;
16294;SDS011;8255;49.560;8.244;2023-03-20T04:36:35;19.30;;;14.90;;
16294;SDS011;8255;49.560;8.244;2023-03-20T04:39:05;17.85;;;14.35;;
16294;SDS011;8255;49.560;8.244;2023-03-20T04:41:32;17.23;;;14.38;;
16294;SDS011;8255;49.560;8.244;2023-03-20T04:43:58;16.95;;;13.98;;
16294;SDS011;8255;49.560;8.244;2023-03-20T04:46:26;16.13;;;13.77;;
16294;SDS011;8255;49.560;8.244;2023-03-20T04:48:53;17.80;;;13.75;;
16294;SDS011;8255;49.560;8.244;2023-03-20T04:51:19;15.30;;;13.18;;
16294;SDS011;8255;49.560;8.244;2023-03-20T04:53:51;16.13;;;13.15;;
16294;SDS011;8255;49.560;8.244;2023-03-20T04:56:17;16.33;;;13.10;;
16294;SDS011;8255;49.560;8.244;2023-03-20T04:58:47;16.40;;;12.73;;
16294;SDS011;8255;49.560;8.244;2023-03-20T05:01:15;13.93;;;11.88;;
16294;SDS011;8255;49.560;8.244;2023-03-20T05:03:42;14.43;;;12.18;;
16294;SDS011;8255;49.560;8.244;2023-03-20T05:06:09;15.18;;;12.52;;
16294;SDS011;8255;49.560;8.244;2023-03-20T05:08:39;17.50;;;12.23;;
16294;SDS011;8255;49.560;8.244;2023-03-20T05:11:05;15.25;;;12.38;;
16294;SDS011;8255;49.560;8.244;2023-03-20T05:13:58;13.30;;;11.65;;
16294;SDS011;8255;49.560;8.244;2023-03-20T05:16:25;16.40;;;12.48;;
16294;SDS011;8255;49.560;8.244;2023-03-20T05:19:05;13.80;;;11.75;;
16294;SDS011;8255;49.560;8.244;2023-03-20T05:21:44;14.43;;;12.43;;
16294;SDS011;8255;49.560;8.244;2023-03-20T05:24:24;16.00;;;12.20;;
16294;SDS011;8255;49.560;8.244;2023-03-20T05:27:15;14.77;;;12.55;;
16294;SDS011;8255;49.560;8.244;2023-03-20T05:29:48;17.15;;;13.40;;
16294;SDS011;8255;49.560;8.244;2023-03-20T05:32:14;14.73;;;12.30;;
16294;SDS011;8255;49.560;8.244;2023-03-20T05:35:08;15.80;;;12.73;;
16294;SDS011;8255;49.560;8.244;2023-03-20T05:37:57;16.40;;;11.95;;
16294;SDS011;8255;49.560;8.244;2023-03-20T05:40:54;16.38;;;12.48;;
16294;SDS011;8255;49.560;8.244;2023-03-20T05:43:30;14.57;;;12.35;;
16294;SDS011;8255;49.560;8.244;2023-03-20T05:46:18;16.45;;;12.55;;
16294;SDS011;8255;49.560;8.244;2023-03-20T05:49:11;16.35;;;13.15;;
16294;SDS011;8255;49.560;8.244;2023-03-20T05:52:14;17.17;;;12.57;;
16294;SDS011;8255;49.560;8.244;2023-03-20T05:54:57;16.27;;;12.93;;
16294;SDS011;8255;49.560;8.244;2023-03-20T05:57:38;16.50;;;12.45;;
16294;SDS011;8255;49.560;8.244;2023-03-20T06:00:23;17.13;;;12.80;;
16294;SDS011;8255;49.560;8.244;2023-03-20T06:03:09;19.27;;;15.48;;
16294;SDS011;8255;49.560;8.244;2023-03-20T06:05:52;16.45;;;13.57;;
16294;SDS011;8255;49.560;8.244;2023-03-20T06:08:20;16.75;;;13.23;;
16294;SDS011;8255;49.560;8.244;2023-03-20T06:10:48;16.48;;;14.20;;
16294;SDS011;8255;49.560;8.244;2023-03-20T06:13:15;15.88;;;13.77;;
16294;SDS011;8255;49.560;8.244;2023-03-20T06:15:41;17.45;;;13.93;;
16294;SDS011;8255;49.560;8.244;2023-03-20T06:18:13;17.58;;;14.38;;
16294;SDS011;8255;49.560;8.244;2023-03-20T06:20:40;18.58;;;14.63;;
16294;SDS011;8255;49.560;8.244;2023-03-20T06:23:07;23.52;;;15.25;;
16294;SDS011;8255;49.560;8.244;2023-03-20T06:25:35;21.25;;;14.98;;
16294;SDS011;8255;49.560;8.244;2023-03-20T06:28:02;23.30;;;15.45;;
16294;SDS011;8255;49.560;8.244;2023-03-20T06:30:29;20.77;;;15.65;;
16294;SDS011;8255;49.560;8.244;2023-03-20T06:32:56;23.35;;;15.45;;
16294;SDS011;8255;49.560;8.244;2023-03-20T06:35:30;24.10;;;15.57;;
16294;SDS011;8255;49.560;8.244;2023-03-20T06:37:56;24.70;;;16.80;;
16294;SDS011;8255;49.560;8.244;2023-03-20T06:40:25;22.02;;;15.35;;
16294;SDS011;8255;49.560;8.244;2023-03-20T06:42:54;23.58;;;17.17;;
16294;SDS011;8255;49.560;8.244;2023-03-20T06:45:23;22.38;;;16.30;;
16294;SDS011;8255;49.560;8.244;2023-03-20T06:47:58;25.48;;;17.30;;
16294;SDS011;8255;49.560;8.244;2023-03-20T06:50:25;24.73;;;17.17;;
16294;SDS011;8255;49.560;8.244;2023-03-20T06:52:52;24.98;;;16.73;;
16294;SDS011;8255;49.560;8.244;2023-03-20T06:55:35;25.90;;;17.25;;
16294;SDS011;8255;49.560;8.244;2023-03-20T06:58:03;25.23;;;17.35;;
16294;SDS011;8255;49.560;8.244;2023-03-20T07:00:31;24.58;;;17.30;;
16294;SDS011;8255;49.560;8.244;2023-03-20T07:03:01;23.05;;;16.23;;
16294;SDS011;8255;49.560;8.244;2023-03-20T07:05:28;23.40;;;16.65;;
16294;SDS011;8255;49.560;8.244;2023-03-20T07:07:56;24.40;;;16.80;;
16294;SDS011;8255;49.560;8.244;2023-03-20T07:10:24;28.63;;;17.50;;
16294;SDS011;8255;49.560;8.244;2023-03-20T07:12:51;24.88;;;16.02;;
16294;SDS011;8255;49.560;8.244;2023-03-20T07:15:20;23.52;;;16.05;;
16294;SDS011;8255;49.560;8.244;2023-03-20T07:17:47;21.15;;;15.55;;
16294;SDS011;8255;49.560;8.244;2023-03-20T07:20:14;20.73;;;15.52;;
16294;SDS011;8255;49.560;8.244;2023-03-20T07:22:40;24.20;;;15.63;;
16294;SDS011;8255;49.560;8.244;2023-03-20T07:25:21;21.65;;;15.15;;
16294;SDS011;8255;49.560;8.244;2023-03-20T07:27:48;22.38;;;15.10;;
16294;SDS011;8255;49.560;8.244;2023-03-20T07:30:18;24.75;;;16.40;;
16294;SDS011;8255;49.560;8.244;2023-03-20T07:32:47;22.08;;;15.98;;
16294;SDS011;8255;49.560;8.244;2023-03-20T07:35:14;23.40;;;15.77;;
16294;SDS011;8255;49.560;8.244;2023-03-20T07:37:41;22.02;;;15.23;;
16294;SDS011;8255;49.560;8.244;2023-03-20T07:40:09;24.40;;;16.13;;
16294;SDS011;8255;49.560;8.244;2023-03-20T07:42:45;20.00;;;14.45;;
16294;SDS011;8255;49.560;8.244;2023-03-20T07:45:26;22.65;;;15.35;;
16294;SDS011;8255;49.560;8.244;2023-03-20T07:47:56;23.92;;;16.85;;
16294;SDS011;8255;49.560;8.244;2023-03-20T07:50:23;25.65;;;17.40;;
16294;SDS011;8255;49.560;8.244;2023-03-20T07:52:49;28.63;;;17.23;;
16294;SDS011;8255;49.560;8.244;2023-03-20T07:55:19;27.25;;;17.05;;
16294;SDS011;8255;49.560;8.244;2023-03-20T07:57:46;25.58;;;17.80;;
16294;SDS011;8255;49.560;8.244;2023-03-20T08:00:13;21.13;;;14.50;;
16294;SDS011;8255;49.560;8.244;2023-03-20T08:02:40;22.00;;;15.10;;
16294;SDS011;8255;49.560;8.244;2023-03-20T08:05:08;18.73;;;13.90;;
16294;SDS011;8255;49.560;8.244;2023-03-20T08:07:35;21.10;;;13.95;;
16294;SDS011;8255;49.560;8.244;2023-03-20T08:10:01;21.95;;;15.52;;
16294;SDS011;8255;49.560;8.244;2023-03-20T08:12:28;21.95;;;14.60;;
16294;SDS011;8255;49.560;8.244;2023-03-20T08:14:54;21.83;;;14.93;;
16294;SDS011;8255;49.560;8.244;2023-03-20T08:17:20;22.27;;;15.45;;
16294;SDS011;8255;49.560;8.244;2023-03-20T08:19:47;26.42;;;17.83;;
16294;SDS011;8255;49.560;8.244;2023-03-20T08:22:14;42.80;;;27.83;;
16294;SDS011;8255;49.560;8.244;2023-03-20T08:24:41;27.02;;;17.98;;
16294;SDS011;8255;49.560;8.244;2023-03-20T08:27:07;23.55;;;15.48;;
16294;SDS011;8255;49.560;8.244;2023-03-20T08:29:33;21.48;;;14.93;;
16294;SDS011;8255;49.560;8.244;2023-03-20T08:32:00;21.33;;;15.18;;
16294;SDS011;8255;49.560;8.244;2023-03-20T08:34:26;24.75;;;15.57;;
16294;SDS011;8255;49.560;8.244;2023-03-20T08:36:52;19.08;;;13.85;;
16294;SDS011;8255;49.560;8.244;2023-03-20T08:39:20;19.10;;;13.50;;
16294;SDS011;8255;49.560;8.244;2023-03-20T08:41:46;17.08;;;12.75;;
16294;SDS011;8255;49.560;8.244;2023-03-20T08:44:13;19.42;;;13.05;;
16294;SDS011;8255;49.560;8.244;2023-03-20T08:46:39;20.38;;;14.07;;
16294;SDS011;8255;49.560;8.244;2023-03-20T08:49:07;19.17;;;13.05;;
16294;SDS011;8255;49.560;8.244;2023-03-20T08:51:34;16.15;;;12.25;;
16294;SDS011;8255;49.560;8.244;2023-03-20T08:54:00;18.52;;;13.13;;
16294;SDS011;8255;49.560;8.244;2023-03-20T08:56:28;18.20;;;14.15;;
16294;SDS011;8255;49.560;8.244;2023-03-20T08:58:54;21.33;;;13.48;;
16294;SDS011;8255;49.560;8.244;2023-03-20T09:01:21;18.08;;;12.43;;
16294;SDS011;8255;49.560;8.244;2023-03-20T09:03:47;18.15;;;12.75;;
16294;SDS011;8255;49.560;8.244;2023-03-20T09:06:13;12.35;;;10.70;;
16294;SDS011;8255;49.560;8.244;2023-03-20T09:08:39;15.13;;;10.88;;
16294;SDS011;8255;49.560;8.244;2023-03-20T09:11:06;16.42;;;12.00;;
16294;SDS011;8255;49.560;8.244;2023-03-20T09:13:34;16.50;;;12.38;;
16294;SDS011;8255;49.560;8.244;2023-03-20T09:16:00;15.00;;;12.38;;
16294;SDS011;8255;49.560;8.244;2023-03-20T09:18:27;14.32;;;11.18;;
16294;SDS011;8255;49.560;8.244;2023-03-20T09:20:53;13.80;;;11.27;;
16294;SDS011;8255;49.560;8.244;2023-03-20T09:23:21;15.38;;;11.15;;
16294;SDS011;8255;49.560;8.244;2023-03-20T09:25:47;10.52;;;9.50;;
16294;SDS011;8255;49.560;8.244;2023-03-20T09:28:13;9.60;;;8.20;;
16294;SDS011;8255;49.560;8.244;2023-03-20T09:30:41;9.40;;;8.15;;
16294;SDS011;8255;49.560;8.244;2023-03-20T09:33:08;10.75;;;8.82;;
16294;SDS011;8255;49.560;8.244;2023-03-20T09:35:34;10.35;;;9.13;;
16294;SDS011;8255;49.560;8.244;2023-03-20T09:38:01;10.38;;;9.25;;
16294;SDS011;8255;49.560;8.244;2023-03-20T09:40:28;11.13;;;9.52;;
16294;SDS011;8255;49.560;8.244;2023-03-20T09:42:57;12.25;;;10.27;;
16294;SDS011;8255;49.560;8.244;2023-03-20T09:45:32;10.20;;;9.07;;
16294;SDS011;8255;49.560;8.244;2023-03-20T09:48:02;10.07;;;9.07;;
16294;SDS011;8255;49.560;8.244;2023-03-20T09:50:31;11.40;;;9.70;;
16294;SDS011;8255;49.560;8.244;2023-03-20T09:53:00;12.05;;;9.25;;
16294;SDS011;8255;49.560;8.244;2023-03-20T09:55:32;11.20;;;9.15;;
16294;SDS011;8255;49.560;8.244;2023-03-20T09:58:02;11.02;;;9.48;;
16294;SDS011;8255;49.560;8.244;2023-03-20T10:00:30;11.20;;;9.98;;
16294;SDS011;8255;49.560;8.244;2023-03-20T10:02:59;9.75;;;8.75;;
16294;SDS011;8255;49.560;8.244;2023-03-20T10:05:28;10.70;;;9.20;;
16294;SDS011;8255;49.560;8.244;2023-03-20T10:07:56;10.05;;;8.95;;
16294;SDS011;8255;49.560;8.244;2023-03-20T10:10:25;11.85;;;8.75;;
16294;SDS011;8255;49.560;8.244;2023-03-20T10:12:55;9.77;;;8.45;;
16294;SDS011;8255;49.560;8.244;2023-03-20T10:15:27;12.63;;;8.63;;
16294;SDS011;8255;49.560;8.244;2023-03-20T10:17:59;13.25;;;10.30;;
16294;SDS011;8255;49.560;8.244;2023-03-20T10:20:29;12.13;;;9.95;;
16294;SDS011;8255;49.560;8.244;2023-03-20T10:22:58;11.13;;;9.02;;
16294;SDS011;8255;49.560;8.244;2023-03-20T10:25:29;9.60;;;8.57;;
16294;SDS011;8255;49.560;8.244;2023-03-20T10:27:57;11.07;;;8.27;;
16294;SDS011;8255;49.560;8.244;2023-03-20T10:30:25;9.43;;;7.68;;
16294;SDS011;8255;49.560;8.244;2023-03-20T10:32:56;9.52;;;7.65;;
16294;SDS011;8255;49.560;8.244;2023-03-20T10:35:25;9.00;;;8.10;;
16294;SDS011;8255;49.560;8.244;2023-03-20T10:37:58;8.68;;;7.70;;
16294;SDS011;8255;49.560;8.244;2023-03-20T10:40:30;8.15;;;7.35;;
16294;SDS011;8255;49.560;8.244;2023-03-20T10:42:58;8.13;;;7.25;;
16294;SDS011;8255;49.560;8.244;2023-03-20T10:45:36;7.85;;;7.15;;
16294;SDS011;8255;49.560;8.244;2023-03-20T10:48:06;7.68;;;6.85;;
16294;SDS011;8255;49.560;8.244;2023-03-20T10:50:34;7.68;;;6.90;;
16294;SDS011;8255;49.560;8.244;2023-03-20T10:53:04;8.50;;;7.38;;
16294;SDS011;8255;49.560;8.244;2023-03-20T10:55:31;7.93;;;6.55;;
16294;SDS011;8255;49.560;8.244;2023-03-20T10:58:02;9.00;;;6.85;;
16294;SDS011;8255;49.560;8.244;2023-03-20T11:00:30;7.68;;;6.97;;
16294;SDS011;8255;49.560;8.244;2023-03-20T11:02:57;8.18;;;6.32;;
16294;SDS011;8255;49.560;8.244;2023-03-20T11:05:24;7.35;;;6.63;;
16294;SDS011;8255;49.560;8.244;2023-03-20T11:07:59;8.13;;;6.63;;
16294;SDS011;8255;49.560;8.244;2023-03-20T11:10:28;6.30;;;5.70;;
16294;SDS011;8255;49.560;8.244;2023-03-20T11:12:56;6.40;;;5.78;;
16294;SDS011;8255;49.560;8.244;2023-03-20T11:15:23;8.45;;;6.50;;
16294;SDS011;8255;49.560;8.244;2023-03-20T11:17:51;8.60;;;6.85;;
16294;SDS011;8255;49.560;8.244;2023-03-20T11:20:18;6.43;;;5.82;;
16294;SDS011;8255;49.560;8.244;2023-03-20T11:22:45;5.88;;;5.28;;
16294;SDS011;8255;49.560;8.244;2023-03-20T11:25:21;5.78;;;5.18;;
16294;SDS011;8255;49.560;8.244;2023-03-20T11:27:49;5.85;;;5.35;;
16294;SDS011;8255;49.560;8.244;2023-03-20T11:30:15;5.35;;;4.90;;
16294;SDS011;8255;49.560;8.244;2023-03-20T11:32:44;6.70;;;5.95;;
16294;SDS011;8255;49.560;8.244;2023-03-20T11:35:18;5.15;;;4.65;;
16294;SDS011;8255;49.560;8.244;2023-03-20T11:37:45;5.15;;;4.75;;
16294;SDS011;8255;49.560;8.244;2023-03-20T11:40:13;6.05;;;5.45;;
16294;SDS011;8255;49.560;8.244;2023-03-20T11:42:39;4.65;;;4.25;;
16294;SDS011;8255;49.560;8.244;2023-03-20T11:45:18;4.90;;;4.50;;
16294;SDS011;8255;49.560;8.244;2023-03-20T11:47:47;4.50;;;4.20;;
16294;SDS011;8255;49.560;8.244;2023-03-20T11:50:23;4.90;;;4.45;;
16294;SDS011;8255;49.560;8.244;2023-03-20T11:52:50;3.70;;;3.40;;
16294;SDS011;8255;49.560;8.244;2023-03-20T11:55:22;4.47;;;4.00;;
16294;SDS011;8255;49.560;8.244;2023-03-20T11:57:49;4.63;;;4.25;;
16294;SDS011;8255;49.560;8.244;2023-03-20T12:00:18;4.70;;;4.38;;
16294;SDS011;8255;49.560;8.244;2023-03-20T12:02:45;4.07;;;3.78;;
16294;SDS011;8255;49.560;8.244;2023-03-20T12:05:19;4.78;;;4.18;;
16294;SDS011;8255;49.560;8.244;2023-03-20T12:07:52;4.40;;;4.10;;
16294;SDS011;8255;49.560;8.244;2023-03-20T12:10:22;6.28;;;4.10;;
16294;SDS011;8255;49.560;8.244;2023-03-20T12:12:50;4.38;;;4.05;;
16294;SDS011;8255;49.560;8.244;2023-03-20T12:15:22;3.75;;;3.45;;
16294;SDS011;8255;49.560;8.244;2023-03-20T12:17:51;4.10;;;3.80;;
16294;SDS011;8255;49.560;8.244;2023-03-20T12:20:27;4.25;;;3.95;;
16294;SDS011;8255;49.560;8.244;2023-03-20T12:22:56;4.22;;;3.92;;
16294;SDS011;8255;49.560;8.244;2023-03-20T12:25:23;4.65;;;4.20;;
16294;SDS011;8255;49.560;8.244;2023-03-20T12:27:52;3.85;;;3.42;;
16294;SDS011;8255;49.560;8.244;2023-03-20T12:30:22;4.22;;;3.83;;
16294;SDS011;8255;49.560;8.244;2023-03-20T12:32:53;4.38;;;3.67;;
16294;SDS011;8255;49.560;8.244;2023-03-20T12:35:22;3.90;;;3.60;;
16294;SDS011;8255;49.560;8.244;2023-03-20T12:37:50;5.03;;;3.80;;
16294;SDS011;8255;49.560;8.244;2023-03-20T12:40:17;3.88;;;3.55;;
16294;SDS011;8255;49.560;8.244;2023-03-20T12:42:48;3.92;;;3.45;;
16294;SDS011;8255;49.560;8.244;2023-03-20T12:45:18;3.40;;;3.10;;
16294;SDS011;8255;49.560;8.244;2023-03-20T12:47:58;3.72;;;3.42;;
16294;SDS011;8255;49.560;8.244;2023-03-20T12:50:29;3.60;;;3.33;;
16294;SDS011;8255;49.560;8.244;2023-03-20T12:53:00;3.55;;;3.08;;
16294;SDS011;8255;49.560;8.244;2023-03-20T12:55:30;3.40;;;3.20;;
16294;SDS011;8255;49.560;8.244;2023-03-20T12:58:04;3.40;;;3.20;;
16294;SDS011;8255;49.560;8.244;2023-03-20T13:00:32;3.17;;;2.90;;
16294;SDS011;8255;49.560;8.244;2023-03-20T13:03:08;3.10;;;2.90;;
16294;SDS011;8255;49.560;8.244;2023-03-20T13:05:39;3.35;;;3.00;;
16294;SDS011;8255;49.560;8.244;2023-03-20T13:10:57;4.28;;;2.83;;
16294;SDS011;8255;49.560;8.244;2023-03-20T13:13:27;2.80;;;2.50;;
16294;SDS011;8255;49.560;8.244;2023-03-20T13:15:59;2.88;;;2.67;;
16294;SDS011;8255;49.560;8.244;2023-03-20T13:18:33;2.67;;;2.47;;
16294;SDS011;8255;49.560;8.244;2023-03-20T13:21:02;2.60;;;2.50;;
16294;SDS011;8255;49.560;8.244;2023-03-20T13:23:31;2.80;;;2.60;;
16294;SDS011;8255;49.560;8.244;2023-03-20T13:26:06;3.25;;;2.58;;
16294;SDS011;8255;49.560;8.244;2023-03-20T13:28:40;2.70;;;2.53;;
16294;SDS011;8255;49.560;8.244;2023-03-20T13:31:15;2.90;;;2.70;;
16294;SDS011;8255;49.560;8.244;2023-03-20T13:33:49;3.50;;;2.97;;
16294;SDS011;8255;49.560;8.244;2023-03-20T13:36:21;4.28;;;2.50;;
16294;SDS011;8255;49.560;8.244;2023-03-20T13:38:51;2.60;;;2.40;;
16294;SDS011;8255;49.560;8.244;2023-03-20T13:41:19;2.75;;;2.55;;
16294;SDS011;8255;49.560;8.244;2023-03-20T13:43:47;2.65;;;2.45;;
16294;SDS011;8255;49.560;8.244;2023-03-20T13:46:18;4.20;;;2.47;;
16294;SDS011;8255;49.560;8.244;2023-03-20T13:48:48;2.78;;;2.58;;
16294;SDS011;8255;49.560;8.244;2023-03-20T13:51:18;3.00;;;2.70;;
16294;SDS011;8255;49.560;8.244;2023-03-20T13:53:48;2.70;;;2.55;;
16294;SDS011;8255;49.560;8.244;2023-03-20T13:56:20;2.60;;;2.40;;
16294;SDS011;8255;49.560;8.244;2023-03-20T13:58:50;2.55;;;2.38;;
16294;SDS011;8255;49.560;8.244;2023-03-20T14:01:20;3.53;;;3.20;;
16294;SDS011;8255;49.560;8.244;2023-03-20T14:03:48;3.85;;;3.10;;
16294;SDS011;8255;49.560;8.244;2023-03-20T14:06:16;2.78;;;2.58;;
16294;SDS011;8255;49.560;8.244;2023-03-20T14:08:46;2.80;;;2.30;;
16294;SDS011;8255;49.560;8.244;2023-03-20T14:11:14;4.25;;;2.70;;
16294;SDS011;8255;49.560;8.244;2023-03-20T14:13:56;2.60;;;2.40;;
16294;SDS011;8255;49.560;8.244;2023-03-20T14:16:25;3.78;;;2.80;;
16294;SDS011;8255;49.560;8.244;2023-03-20T14:19:02;4.88;;;2.90;;
16294;SDS011;8255;49.560;8.244;2023-03-20T14:21:29;4.40;;;2.50;;
16294;SDS011;8255;49.560;8.244;2023-03-20T14:23:56;2.70;;;2.50;;
16294;SDS011;8255;49.560;8.244;2023-03-20T14:26:25;3.15;;;2.83;;
16294;SDS011;8255;49.560;8.244;2023-03-20T14:28:54;3.60;;;2.58;;
16294;SDS011;8255;49.560;8.244;2023-03-20T14:31:21;2.80;;;2.60;;
16294;SDS011;8255;49.560;8.244;2023-03-20T14:33:52;3.00;;;2.80;;
16294;SDS011;8255;49.560;8.244;2023-03-20T14:36:21;3.50;;;2.70;;
16294;SDS011;8255;49.560;8.244;2023-03-20T14:38:52;2.70;;;2.50;;
16294;SDS011;8255;49.560;8.244;2023-03-20T14:41:23;2.88;;;2.40;;
16294;SDS011;8255;49.560;8.244;2023-03-20T14:43:55;2.92;;;2.60;;
16294;SDS011;8255;49.560;8.244;2023-03-20T14:46:24;2.70;;;2.50;;
16294;SDS011;8255;49.560;8.244;2023-03-20T14:48:52;3.08;;;2.78;;
16294;SDS011;8255;49.560;8.244;2023-03-20T14:51:23;3.63;;;3.10;;
16294;SDS011;8255;49.560;8.244;2023-03-20T14:53:54;2.25;;;2.15;;
16294;SDS011;8255;49.560;8.244;2023-03-20T14:56:26;2.53;;;2.22;;
16294;SDS011;8255;49.560;8.244;2023-03-20T14:58:56;2.53;;;2.38;;
16294;SDS011;8255;49.560;8.244;2023-03-20T15:01:26;2.50;;;2.30;;
16294;SDS011;8255;49.560;8.244;2023-03-20T15:03:55;2.28;;;2.08;;
16294;SDS011;8255;49.560;8.244;2023-03-20T15:06:25;2.22;;;2.13;;
16294;SDS011;8255;49.560;8.244;2023-03-20T15:08:52;2.35;;;2.15;;
16294;SDS011;8255;49.560;8.244;2023-03-20T15:11:20;3.33;;;2.33;;
16294;SDS011;8255;49.560;8.244;2023-03-20T15:13:47;2.30;;;2.20;;
16294;SDS011;8255;49.560;8.244;2023-03-20T15:16:15;2.00;;;1.90;;